createdAt,value
2017-10-03T00:00:05.012Z,2.57
2017-10-03T00:02:33.136Z,2.50
2017-10-03T00:05:09.397Z,2.80
2017-10-03T00:07:37.585Z,3.43
2017-10-03T00:10:05.724Z,2.80
2017-10-03T00:12:37.763Z,3.00
2017-10-03T00:15:06.794Z,2.70
2017-10-03T00:17:34.912Z,2.43
2017-10-03T00:20:05.870Z,2.60
2017-10-03T00:22:35.071Z,2.83
2017-10-03T00:25:04.168Z,3.37
2017-10-03T00:27:36.801Z,2.90
2017-10-03T00:30:04.919Z,3.67
2017-10-03T00:32:37.243Z,2.30
2017-10-03T00:35:06.302Z,2.83
2017-10-03T00:37:38.200Z,2.83
2017-10-03T00:40:12.016Z,3.63
2017-10-03T00:42:43.992Z,3.87
2017-10-03T00:45:12.180Z,3.73
2017-10-03T00:47:42.251Z,3.30
2017-10-03T00:50:10.414Z,2.90
2017-10-03T00:52:38.617Z,2.37
2017-10-03T00:55:06.741Z,2.30
2017-10-03T00:57:35.688Z,3.70
2017-10-03T01:00:04.988Z,3.33
2017-10-03T01:02:33.166Z,2.83
2017-10-03T01:05:03.372Z,2.90
2017-10-03T01:07:32.415Z,2.80
2017-10-03T01:10:02.587Z,2.47
2017-10-03T01:12:30.694Z,2.33
2017-10-03T01:14:58.890Z,3.60
2017-10-03T01:17:26.994Z,3.27
2017-10-03T01:19:56.136Z,2.93
2017-10-03T01:22:24.325Z,3.07
2017-10-03T01:24:54.463Z,2.63
2017-10-03T01:27:22.751Z,2.30
2017-10-03T01:29:50.934Z,3.33
2017-10-03T01:32:19.136Z,3.20
2017-10-03T01:34:47.482Z,3.07
2017-10-03T01:37:16.615Z,2.93
2017-10-03T01:39:48.430Z,2.63
2017-10-03T01:42:16.615Z,2.70
2017-10-03T01:44:48.615Z,2.60
2017-10-03T01:47:17.722Z,3.23
2017-10-03T01:49:46.676Z,3.43
2017-10-03T01:52:14.819Z,2.50
2017-10-03T01:54:43.073Z,3.37
2017-10-03T01:57:11.190Z,2.87
2017-10-03T01:59:45.079Z,3.00
2017-10-03T02:02:13.219Z,2.83
2017-10-03T02:04:41.337Z,3.00
2017-10-03T02:07:09.550Z,3.70
2017-10-03T02:09:37.679Z,2.40
2017-10-03T02:12:05.814Z,3.00
2017-10-03T02:14:33.969Z,2.93
2017-10-03T02:17:02.127Z,3.43
2017-10-03T02:19:30.247Z,2.80
2017-10-03T02:22:01.608Z,3.10
2017-10-03T02:24:29.696Z,3.10
2017-10-03T02:26:57.831Z,2.77
2017-10-03T02:29:27.989Z,3.40
2017-10-03T02:31:56.241Z,2.67
2017-10-03T02:34:24.412Z,2.63
2017-10-03T02:36:53.454Z,3.53
2017-10-03T02:39:21.621Z,2.50
2017-10-03T02:41:49.747Z,2.87
2017-10-03T02:44:17.977Z,2.87
2017-10-03T02:46:46.114Z,3.70
2017-10-03T02:49:14.275Z,2.67
2017-10-03T02:51:46.491Z,2.80
2017-10-03T02:54:14.703Z,3.00
2017-10-03T02:56:43.738Z,3.17
2017-10-03T02:59:12.017Z,2.40
2017-10-03T03:01:40.118Z,2.87
2017-10-03T03:04:11.966Z,2.83
2017-10-03T03:06:40.102Z,2.90
2017-10-03T03:09:08.249Z,2.63
2017-10-03T03:11:36.372Z,2.73
2017-10-03T03:14:08.886Z,2.70
2017-10-03T03:16:37.123Z,3.07
2017-10-03T03:19:05.254Z,3.30
2017-10-03T03:21:48.284Z,2.23
2017-10-03T03:24:16.611Z,2.30
2017-10-03T03:26:44.752Z,2.50
2017-10-03T03:29:13.852Z,2.10
2017-10-03T03:31:42.018Z,3.40
2017-10-03T03:34:10.245Z,2.57
2017-10-03T03:36:38.381Z,3.10
2017-10-03T03:39:06.553Z,2.90
2017-10-03T03:41:41.501Z,2.50
2017-10-03T03:44:09.666Z,2.73
2017-10-03T03:46:37.875Z,2.53
2017-10-03T03:49:06.995Z,2.33
2017-10-03T03:51:35.180Z,2.70
2017-10-03T03:54:16.938Z,2.50
2017-10-03T03:56:45.108Z,2.67
2017-10-03T03:59:15.772Z,2.97
2017-10-03T04:01:44.882Z,2.80
2017-10-03T04:04:13.987Z,2.40
2017-10-03T04:06:42.969Z,2.40
2017-10-03T04:09:12.134Z,3.00
2017-10-03T04:11:40.283Z,2.73
2017-10-03T04:14:10.703Z,3.30
2017-10-03T04:16:38.891Z,3.23
2017-10-03T04:19:07.578Z,3.10
2017-10-03T04:21:42.304Z,4.33
2017-10-03T04:24:11.399Z,2.70
2017-10-03T04:26:39.548Z,2.83
2017-10-03T04:29:07.693Z,2.80
2017-10-03T04:31:38.712Z,3.20
2017-10-03T04:34:07.823Z,2.80
2017-10-03T04:36:36.732Z,2.70
2017-10-03T04:39:04.933Z,2.93
2017-10-03T04:41:33.099Z,3.20
2017-10-03T04:44:16.398Z,3.07
2017-10-03T04:46:45.328Z,2.90
2017-10-03T04:49:17.534Z,3.63
2017-10-03T04:51:47.155Z,3.60
2017-10-03T04:54:17.951Z,2.90
2017-10-03T04:57:02.571Z,3.30
2017-10-03T04:59:31.283Z,2.80
2017-10-03T05:01:59.379Z,3.47
2017-10-03T05:04:28.926Z,3.33
2017-10-03T05:07:16.889Z,2.77
2017-10-03T05:09:48.093Z,2.97
2017-10-03T05:12:41.045Z,2.80
2017-10-03T05:24:15.470Z,3.00
2017-10-03T05:26:50.099Z,2.83
2017-10-03T05:29:28.380Z,2.23
2017-10-03T05:34:56.890Z,2.80
2017-10-03T05:37:25.050Z,3.00
2017-10-03T05:39:53.223Z,3.37
2017-10-03T05:42:21.438Z,3.30
2017-10-03T05:48:02.471Z,4.50
2017-10-03T05:50:30.616Z,3.30
2017-10-03T05:59:08.288Z,3.23
2017-10-03T06:04:46.987Z,4.27
2017-10-03T06:07:18.395Z,3.23
2017-10-03T06:12:47.700Z,2.83
2017-10-03T06:15:15.890Z,3.57
2017-10-03T06:17:44.038Z,3.93
2017-10-03T06:23:22.285Z,4.57
2017-10-03T06:25:55.471Z,3.33
2017-10-03T06:28:33.320Z,3.40
2017-10-03T06:31:05.396Z,3.53
2017-10-03T06:33:37.222Z,3.83
2017-10-03T06:36:05.334Z,3.50
2017-10-03T06:38:33.460Z,4.10
2017-10-03T06:41:02.510Z,3.37
2017-10-03T06:43:35.094Z,3.03
2017-10-03T06:46:20.348Z,4.50
2017-10-03T06:48:53.708Z,3.57
2017-10-03T06:51:23.830Z,3.20
2017-10-03T06:56:51.589Z,3.57
2017-10-03T06:59:23.426Z,3.67
2017-10-03T07:01:51.648Z,3.90
2017-10-03T07:04:19.784Z,4.20
2017-10-03T07:06:47.890Z,4.67
2017-10-03T07:09:16.054Z,3.60
2017-10-03T07:20:43.515Z,3.40
2017-10-03T07:23:11.641Z,3.73
2017-10-03T07:31:45.546Z,3.27
2017-10-03T07:34:14.806Z,3.93
2017-10-03T07:36:48.672Z,3.63
2017-10-03T07:39:17.806Z,3.27
2017-10-03T07:41:54.812Z,3.20
2017-10-03T07:44:26.927Z,3.73
2017-10-03T07:46:55.070Z,3.77
2017-10-03T07:49:23.976Z,3.30
2017-10-03T07:51:53.127Z,3.57
2017-10-03T07:57:17.673Z,3.80
2017-10-03T07:59:45.795Z,3.33
2017-10-03T08:02:14.076Z,3.00
2017-10-03T08:04:42.166Z,2.40
2017-10-03T08:07:11.101Z,3.90
2017-10-03T08:09:39.230Z,3.80
2017-10-03T08:15:09.290Z,3.27
2017-10-03T08:17:41.134Z,2.90
2017-10-03T08:20:09.269Z,3.20
2017-10-03T08:22:39.322Z,3.00
2017-10-03T08:25:07.469Z,2.90
2017-10-03T08:27:36.521Z,2.73
2017-10-03T08:30:05.177Z,2.43
2017-10-03T08:32:33.334Z,2.47
2017-10-03T08:35:03.248Z,2.67
2017-10-03T08:37:32.036Z,2.53
2017-10-03T08:40:01.979Z,2.30
2017-10-03T08:48:48.284Z,2.40
2017-10-03T08:51:18.324Z,3.20
2017-10-03T08:53:48.362Z,2.80
2017-10-03T08:56:17.750Z,2.70
2017-10-03T09:01:41.783Z,2.30
2017-10-03T09:04:18.148Z,2.87
2017-10-03T09:06:48.900Z,3.23
2017-10-03T09:12:13.851Z,4.87
2017-10-03T09:17:58.954Z,2.23
2017-10-03T09:20:38.019Z,2.90
2017-10-03T09:23:17.931Z,3.67
2017-10-03T09:28:58.254Z,3.40
2017-10-03T09:31:28.180Z,3.50
2017-10-03T09:40:15.042Z,3.10
2017-10-03T09:42:43.181Z,2.93
2017-10-03T10:00:15.153Z,2.70
2017-10-03T10:02:47.663Z,2.50
2017-10-03T10:08:18.735Z,2.40
2017-10-03T10:10:48.377Z,3.13
2017-10-03T10:13:17.720Z,2.57
2017-10-03T10:15:46.560Z,2.90
2017-10-03T10:18:17.044Z,2.13
2017-10-03T10:20:45.280Z,2.50
2017-10-03T10:23:13.736Z,2.80
2017-10-03T10:25:42.059Z,2.60
2017-10-03T10:31:15.596Z,2.10
2017-10-03T10:33:47.829Z,2.00
2017-10-03T10:36:18.015Z,3.03
2017-10-03T10:41:40.771Z,1.80
2017-10-03T10:56:12.369Z,2.03
2017-10-03T10:58:42.442Z,1.77
2017-10-03T11:13:18.966Z,1.93
2017-10-03T11:15:47.429Z,1.60
2017-10-03T11:18:15.660Z,1.40
2017-10-03T11:27:03.364Z,2.27
2017-10-03T11:29:32.726Z,2.13
2017-10-03T11:32:08.859Z,1.40
2017-10-03T11:34:37.927Z,1.77
2017-10-03T11:37:06.271Z,1.80
2017-10-03T11:39:34.757Z,2.07
2017-10-03T11:42:05.864Z,1.77
2017-10-03T11:44:34.344Z,2.10
2017-10-03T11:47:02.466Z,1.87
2017-10-03T11:49:40.431Z,1.73
2017-10-03T11:52:18.451Z,1.73
2017-10-03T11:54:46.892Z,2.10
2017-10-03T11:57:18.087Z,2.77
2017-10-03T11:59:46.206Z,2.47
2017-10-03T12:02:18.485Z,2.53
2017-10-03T12:04:47.686Z,2.10
2017-10-03T12:07:16.235Z,1.20
2017-10-03T12:09:44.429Z,1.17
2017-10-03T12:12:13.274Z,1.47
2017-10-03T12:14:51.430Z,1.80
2017-10-03T12:17:20.589Z,1.77
2017-10-03T12:22:49.418Z,1.40
2017-10-03T12:25:17.692Z,1.27
2017-10-03T12:27:45.821Z,1.83
2017-10-03T12:30:13.931Z,1.80
2017-10-03T12:32:48.447Z,1.50
2017-10-03T12:35:35.481Z,1.53
2017-10-03T12:38:06.026Z,1.60
2017-10-03T12:40:38.238Z,1.43
2017-10-03T12:46:17.024Z,1.30
2017-10-03T12:48:48.029Z,1.40
2017-10-03T12:57:19.071Z,1.53
2017-10-03T13:06:07.890Z,1.80
2017-10-03T13:08:43.309Z,1.30
2017-10-03T13:11:17.339Z,1.10
2017-10-03T13:13:45.887Z,1.60
2017-10-03T13:16:14.499Z,1.23
2017-10-03T13:18:46.578Z,1.50
2017-10-03T13:21:15.096Z,1.80
2017-10-03T13:23:43.459Z,2.40
2017-10-03T13:26:11.615Z,1.40
2017-10-03T13:28:39.727Z,2.27
2017-10-03T13:31:07.887Z,1.70
2017-10-03T13:33:37.118Z,1.80
2017-10-03T13:36:05.275Z,2.40
2017-10-03T13:38:33.509Z,2.10
2017-10-03T13:41:01.727Z,1.83
2017-10-03T13:43:30.796Z,1.77
2017-10-03T13:46:04.157Z,2.07
2017-10-03T13:48:32.321Z,1.70
2017-10-03T13:51:00.430Z,2.40
2017-10-03T13:53:28.735Z,1.83
2017-10-03T13:55:56.878Z,1.90
2017-10-03T13:58:26.019Z,1.80
2017-10-03T14:00:56.237Z,1.83
2017-10-03T14:03:32.141Z,1.93
2017-10-03T14:06:03.351Z,2.23
2017-10-03T14:08:31.458Z,2.50
2017-10-03T14:11:00.547Z,2.60
2017-10-03T14:13:31.852Z,1.90
2017-10-03T14:16:00.196Z,1.83
2017-10-03T14:18:29.247Z,2.90
2017-10-03T14:21:02.165Z,3.10
2017-10-03T14:23:30.329Z,3.20
2017-10-03T14:25:59.506Z,1.97
2017-10-03T14:28:34.032Z,2.23
2017-10-03T14:31:18.463Z,1.50
2017-10-03T14:33:47.782Z,1.90
2017-10-03T14:36:16.570Z,1.20
2017-10-03T14:38:44.738Z,1.60
2017-10-03T14:41:18.814Z,1.67
2017-10-03T14:43:48.601Z,2.10
2017-10-03T14:46:18.767Z,1.47
2017-10-03T14:48:47.889Z,1.50
2017-10-03T14:51:17.299Z,1.80
2017-10-03T14:53:49.002Z,1.80
2017-10-03T14:56:17.564Z,1.33
2017-10-03T14:58:47.739Z,1.00
2017-10-03T15:01:15.874Z,1.70
2017-10-03T15:03:44.912Z,2.50
2017-10-03T15:06:17.746Z,1.70
2017-10-03T15:08:45.862Z,2.23
2017-10-03T15:11:14.738Z,1.87
2017-10-03T15:13:44.838Z,1.43
2017-10-03T15:16:12.930Z,2.30
2017-10-03T15:18:45.334Z,1.57
2017-10-03T15:21:14.590Z,1.80
2017-10-03T15:23:42.722Z,2.27
2017-10-03T15:26:15.431Z,1.80
2017-10-03T15:28:43.608Z,2.53
2017-10-03T15:31:12.473Z,2.00
2017-10-03T15:33:47.725Z,1.90
2017-10-03T15:36:15.863Z,2.67
2017-10-03T15:38:49.158Z,2.23
2017-10-03T15:41:18.064Z,1.60
2017-10-03T15:43:48.955Z,2.17
2017-10-03T15:46:23.052Z,1.80
2017-10-03T15:48:51.191Z,3.17
2017-10-03T15:51:22.410Z,1.67
2017-10-03T15:53:50.664Z,1.67
2017-10-03T15:56:19.931Z,1.67
2017-10-03T15:58:48.064Z,1.40
2017-10-03T16:01:18.485Z,1.93
2017-10-03T16:03:46.781Z,1.53
2017-10-03T16:06:15.946Z,2.43
2017-10-03T16:08:45.122Z,2.00
2017-10-03T16:11:15.147Z,2.23
2017-10-03T16:13:44.291Z,1.77
2017-10-03T16:16:19.347Z,3.83
2017-10-03T16:18:48.555Z,2.10
2017-10-03T16:21:17.761Z,1.90
2017-10-03T16:23:46.145Z,2.40
2017-10-03T16:26:22.891Z,2.50
2017-10-03T16:28:56.014Z,1.80
2017-10-03T16:31:24.165Z,2.10
2017-10-03T16:33:52.270Z,2.97
2017-10-03T16:36:22.337Z,2.27
2017-10-03T16:38:53.195Z,1.80
2017-10-03T16:41:22.202Z,2.47
2017-10-03T16:43:52.353Z,2.43
2017-10-03T16:46:28.471Z,2.53
2017-10-03T16:49:14.991Z,3.20
2017-10-03T16:51:52.702Z,3.47
2017-10-03T16:54:34.469Z,2.37
2017-10-03T16:57:03.067Z,1.83
2017-10-03T17:02:12.130Z,1.90
2017-10-03T17:07:37.567Z,2.50
2017-10-03T17:10:06.718Z,2.43
2017-10-03T17:12:36.745Z,2.93
2017-10-03T17:15:04.861Z,2.90
2017-10-03T17:17:35.049Z,2.73
2017-10-03T17:20:03.185Z,2.07
2017-10-03T17:22:43.962Z,2.63
2017-10-03T17:25:15.425Z,3.57
2017-10-03T17:28:01.287Z,3.10
2017-10-03T17:30:30.335Z,3.30
2017-10-03T17:33:07.108Z,2.40
2017-10-03T17:35:36.181Z,2.20
2017-10-03T17:38:09.908Z,2.43
2017-10-03T17:40:38.032Z,2.47
2017-10-03T17:43:08.125Z,2.20
2017-10-03T17:45:36.234Z,2.50
2017-10-03T17:48:09.755Z,2.17
2017-10-03T17:50:51.186Z,2.50
2017-10-03T17:53:20.734Z,2.33
2017-10-03T17:55:48.871Z,2.63
2017-10-03T17:58:17.758Z,2.43
2017-10-03T18:00:45.845Z,2.47
2017-10-03T18:03:14.963Z,2.40
2017-10-03T18:05:46.633Z,2.00
2017-10-03T18:08:18.352Z,2.37
2017-10-03T18:10:50.696Z,2.20
2017-10-03T18:13:19.819Z,2.03
2017-10-03T18:15:48.869Z,1.80
2017-10-03T18:18:17.107Z,2.80
2017-10-03T18:20:45.247Z,2.00
2017-10-03T18:23:23.557Z,2.00
2017-10-03T18:25:53.681Z,3.60
2017-10-03T18:28:26.964Z,2.50
2017-10-03T18:30:55.845Z,2.53
2017-10-03T18:33:23.929Z,2.23
2017-10-03T18:35:52.136Z,2.10
2017-10-03T18:38:20.219Z,2.00
2017-10-03T18:40:50.629Z,2.30
2017-10-03T18:43:28.032Z,2.10
2017-10-03T18:46:11.968Z,2.20
2017-10-03T18:48:40.994Z,1.80
2017-10-03T18:51:14.425Z,1.80
2017-10-03T18:53:46.108Z,2.27
2017-10-03T18:56:14.250Z,2.30
2017-10-03T18:58:45.865Z,2.40
2017-10-03T19:01:15.946Z,2.23
2017-10-03T19:03:44.085Z,2.43
2017-10-03T19:06:12.688Z,2.70
2017-10-03T19:08:50.574Z,3.20
2017-10-03T19:11:20.733Z,2.30
2017-10-03T19:13:48.825Z,2.03
2017-10-03T19:16:16.983Z,3.00
2017-10-03T19:18:46.080Z,2.00
2017-10-03T19:21:17.117Z,1.60
2017-10-03T19:24:05.141Z,2.60
2017-10-03T19:26:33.270Z,2.50
2017-10-03T19:29:01.605Z,1.83
2017-10-03T19:31:30.501Z,2.60
2017-10-03T19:34:08.412Z,2.20
2017-10-03T19:36:36.632Z,2.33
2017-10-03T19:39:11.515Z,2.00
2017-10-03T19:41:46.513Z,2.07
2017-10-03T19:44:18.467Z,2.30
2017-10-03T19:46:46.589Z,2.20
2017-10-03T19:49:18.365Z,2.07
2017-10-03T19:51:50.461Z,2.10
2017-10-03T19:54:22.161Z,2.20
2017-10-03T19:56:50.701Z,1.37
2017-10-03T19:59:24.462Z,2.30
2017-10-03T20:01:53.560Z,1.83
2017-10-03T20:04:23.878Z,2.03
2017-10-03T20:06:52.828Z,2.33
2017-10-03T20:09:24.391Z,1.60
2017-10-03T20:11:52.466Z,2.40
2017-10-03T20:14:23.404Z,2.33
2017-10-03T20:16:52.955Z,2.83
2017-10-03T20:19:22.074Z,1.50
2017-10-03T20:22:03.190Z,2.80
2017-10-03T20:24:31.311Z,2.00
2017-10-03T20:26:59.431Z,2.60
2017-10-03T20:29:29.336Z,2.13
2017-10-03T20:32:12.575Z,1.73
2017-10-03T20:34:43.204Z,1.80
2017-10-03T20:37:11.726Z,2.40
2017-10-03T20:39:40.877Z,2.03
2017-10-03T20:42:09.927Z,1.97
2017-10-03T20:48:15.240Z,2.37
2017-10-03T20:50:50.019Z,2.13
2017-10-03T20:53:20.212Z,2.53
2017-10-03T20:56:06.214Z,2.50
2017-10-03T20:58:37.034Z,1.93
2017-10-03T21:01:08.360Z,3.10
2017-10-03T21:03:37.244Z,2.07
2017-10-03T21:06:05.567Z,2.57
2017-10-03T21:08:33.666Z,2.13
2017-10-03T21:11:02.558Z,1.97
2017-10-03T21:13:42.422Z,2.23
2017-10-03T21:16:12.577Z,1.83
2017-10-03T21:18:40.665Z,2.47
2017-10-03T21:21:12.477Z,2.30
2017-10-03T21:23:52.355Z,2.07
2017-10-03T21:26:22.458Z,2.20
2017-10-03T21:28:50.624Z,2.20
2017-10-03T21:31:22.891Z,2.50
2017-10-03T21:33:59.290Z,3.07
2017-10-03T21:36:32.182Z,2.63
2017-10-03T21:39:00.384Z,2.33
2017-10-03T21:41:28.463Z,3.20
2017-10-03T21:43:56.585Z,2.10
2017-10-03T21:46:25.620Z,3.13
2017-10-03T21:48:53.718Z,2.20
2017-10-03T21:51:24.527Z,2.70
2017-10-03T21:53:52.614Z,2.27
2017-10-03T21:56:21.479Z,2.50
2017-10-03T21:58:57.341Z,2.37
2017-10-03T22:01:28.390Z,2.83
2017-10-03T22:03:56.574Z,2.33
2017-10-03T22:06:24.709Z,3.10
2017-10-03T22:08:53.008Z,2.70
2017-10-03T22:11:22.080Z,2.23
2017-10-03T22:13:53.470Z,3.27
2017-10-03T22:16:21.585Z,2.90
2017-10-03T22:18:52.482Z,2.43
2017-10-03T22:21:20.631Z,3.80
2017-10-03T22:23:49.706Z,2.63
2017-10-03T22:26:17.796Z,2.50
2017-10-03T22:28:45.990Z,2.30
2017-10-03T22:31:17.914Z,2.80
2017-10-03T22:34:05.101Z,2.87
2017-10-03T22:36:37.321Z,4.03
2017-10-03T22:39:05.502Z,2.20
2017-10-03T22:41:33.684Z,2.60
2017-10-03T22:44:07.607Z,3.00
2017-10-03T22:46:35.718Z,2.40
2017-10-03T22:49:11.299Z,2.40
2017-10-03T22:51:45.986Z,2.93
2017-10-03T22:54:14.989Z,2.60
2017-10-03T22:56:44.987Z,2.20
2017-10-03T22:59:15.050Z,2.20
2017-10-03T23:01:43.921Z,2.17
2017-10-03T23:07:17.804Z,3.10
2017-10-03T23:09:46.678Z,2.07
2017-10-03T23:12:23.202Z,2.80
2017-10-03T23:14:57.966Z,2.23
2017-10-03T23:17:28.030Z,2.60
2017-10-03T23:19:56.176Z,2.80
2017-10-03T23:22:25.262Z,2.53
2017-10-03T23:24:55.383Z,3.33
2017-10-03T23:27:24.292Z,2.30
2017-10-03T23:29:53.364Z,2.43
2017-10-03T23:32:21.464Z,2.53
2017-10-03T23:34:55.575Z,3.03
2017-10-03T23:37:34.216Z,2.10
2017-10-03T23:40:02.386Z,2.10
2017-10-03T23:42:49.230Z,1.80
2017-10-03T23:45:21.684Z,2.43
2017-10-03T23:47:49.767Z,2.13
2017-10-03T23:50:19.862Z,2.27
2017-10-03T23:53:07.807Z,1.93
2017-10-03T23:55:40.747Z,2.20
2017-10-03T23:58:09.632Z,1.60
